Time;durP1;ratioP1;P1;durP2;ratioP2;P2;SDS_P1;SDS_P2;PMS_P1;PMS_P2;Temp;Humidity;BMP_temperature;BMP_pressure;BME280_temperature;BME280_humidity;BME280_pressure;Samples;Min_cycle;Max_cycle;Signal;HPM_P1;HPM_P2
2022/06/20 00:00:04;;;;;;;8.13;2.37;;;15.00;32.80;;;;;;5066940;28;20543;-52
2022/06/20 00:02:31;;;;;;;5.60;2.20;;;15.00;34.00;;;;;;5065146;28;20526;-54
2022/06/20 00:05:06;;;;;;;6.13;2.07;;;15.00;81.20;;;;;;5061748;28;20882;-53
2022/06/20 00:07:33;;;;;;;5.20;2.50;;;15.00;24.50;;;;;;5064383;28;20492;-52
2022/06/20 00:09:59;;;;;;;7.20;2.20;;;15.00;89.50;;;;;;5067154;28;20488;-52
2022/06/20 00:12:28;;;;;;;2.20;1.90;;;14.90;20.10;;;;;;5064532;28;20549;-53
2022/06/20 00:14:58;;;;;;;5.33;2.37;;;14.90;99.20;;;;;;5064813;28;20511;-56
2022/06/20 00:17:27;;;;;;;2.43;1.80;;;14.90;99.90;;;;;;5065849;28;20522;-52
2022/06/20 00:19:54;;;;;;;2.83;1.70;;;14.90;87.00;;;;;;5064997;28;20481;-53
2022/06/20 00:22:20;;;;;;;5.70;2.30;;;14.90;93.70;;;;;;5070042;28;20481;-53
2022/06/20 00:24:47;;;;;;;5.50;2.00;;;14.80;23.30;;;;;;5063629;28;20582;-54
2022/06/20 00:27:14;;;;;;;4.20;2.13;;;14.80;20.20;;;;;;5058971;28;20545;-53
2022/06/20 00:29:43;;;;;;;7.53;2.60;;;14.70;87.70;;;;;;5066856;28;20569;-53
2022/06/20 00:32:11;;;;;;;3.47;2.37;;;14.70;99.90;;;;;;5066299;28;20514;-53
2022/06/20 00:34:38;;;;;;;4.37;2.40;;;14.60;24.40;;;;;;5067512;28;20453;-53
2022/06/20 00:37:06;;;;;;;4.00;1.93;;;14.50;92.30;;;;;;5059956;28;20458;-53
2022/06/20 00:39:33;;;;;;;6.83;2.20;;;14.50;99.90;;;;;;5065209;28;20857;-52
2022/06/20 00:42:01;;;;;;;9.67;2.43;;;14.50;99.90;;;;;;5066265;28;20465;-53
2022/06/20 00:44:32;;;;;;;3.23;2.20;;;14.50;99.90;;;;;;5065925;28;20605;-54
2022/06/20 00:47:05;;;;;;;3.90;2.03;;;14.50;99.90;;;;;;5068006;28;20997;-53
2022/06/20 00:49:37;;;;;;;5.17;2.23;;;14.50;99.90;;;;;;5063185;28;20574;-53
2022/06/20 00:52:12;;;;;;;5.30;1.90;;;14.50;99.90;;;;;;5064682;28;20462;-52
2022/06/20 00:54:51;;;;;;;4.30;1.90;;;14.60;99.90;;;;;;5061763;28;20570;-53
2022/06/20 00:57:22;;;;;;;4.80;2.40;;;14.60;99.90;;;;;;5059480;28;21019;-52
2022/06/20 00:59:55;;;;;;;5.77;1.90;;;14.60;99.90;;;;;;5060258;28;21075;-52
2022/06/20 01:02:28;;;;;;;3.27;1.80;;;14.60;99.90;;;;;;5062579;28;20456;-51
2022/06/20 01:05:00;;;;;;;7.63;2.50;;;14.60;99.90;;;;;;5059491;28;21016;-52
2022/06/20 01:07:32;;;;;;;6.07;2.47;;;14.60;99.90;;;;;;5066456;28;20465;-52
2022/06/20 01:10:01;;;;;;;4.50;2.03;;;14.70;99.90;;;;;;5064063;28;20485;-52
2022/06/20 01:12:32;;;;;;;3.03;2.00;;;14.70;99.90;;;;;;5063597;28;20492;-51
2022/06/20 01:14:58;;;;;;;4.13;2.60;;;14.70;99.90;;;;;;5069763;28;20874;-53
2022/06/20 01:17:32;;;;;;;7.23;2.50;;;14.70;99.90;;;;;;5064365;28;20544;-53
2022/06/20 01:20:03;;;;;;;4.43;2.20;;;14.70;99.90;;;;;;5061303;28;20487;-53
2022/06/20 01:22:51;;;;;;;6.27;2.00;;;14.70;99.90;;;;;;5063113;28;20452;-52
2022/06/20 01:25:42;;;;;;;4.23;2.23;;;14.60;99.90;;;;;;5059082;28;20460;-53
2022/06/20 01:28:14;;;;;;;4.60;2.13;;;14.60;99.90;;;;;;5064469;28;21039;-52
2022/06/20 01:30:43;;;;;;;7.17;2.50;;;14.70;99.90;;;;;;5059321;28;20522;-53
2022/06/20 01:33:11;;;;;;;4.40;2.87;;;14.70;99.90;;;;;;5066327;28;20502;-52
2022/06/20 01:38:25;;;;;;;4.60;2.27;;;14.70;99.90;;;;;;5066095;28;20595;-53
2022/06/20 01:43:38;;;;;;;4.63;2.47;;;14.60;99.90;;;;;;5064319;28;20579;-51
2022/06/20 01:46:10;;;;;;;6.07;2.47;;;14.70;99.90;;;;;;5059607;28;20514;-53
2022/06/20 01:48:39;;;;;;;4.93;2.20;;;14.60;99.90;;;;;;5050048;28;20470;-51
2022/06/20 01:51:13;;;;;;;5.03;2.40;;;14.70;99.90;;;;;;5057654;28;20515;-52
2022/06/20 01:53:40;;;;;;;4.40;1.80;;;14.70;99.90;;;;;;5060463;28;20510;-52
2022/06/20 01:56:08;;;;;;;2.70;1.90;;;14.70;99.90;;;;;;5067006;28;20457;-52
2022/06/20 01:58:38;;;;;;;6.07;2.23;;;14.70;99.90;;;;;;5062744;28;20519;-53
2022/06/20 02:01:06;;;;;;;5.40;2.00;;;14.70;99.90;;;;;;5059532;28;20488;-53
2022/06/20 02:03:38;;;;;;;5.83;2.80;;;14.70;99.90;;;;;;5066163;28;20472;-53
2022/06/20 02:06:08;;;;;;;6.90;2.73;;;14.80;99.90;;;;;;5065564;28;20441;-53
2022/06/20 02:08:37;;;;;;;5.70;2.37;;;14.80;99.90;;;;;;5064785;28;20510;-52
2022/06/20 02:11:09;;;;;;;5.27;2.20;;;14.70;99.90;;;;;;5068594;28;20911;-52
2022/06/20 02:13:42;;;;;;;3.37;2.00;;;14.70;99.90;;;;;;5065475;28;20518;-52
2022/06/20 02:16:12;;;;;;;4.57;2.10;;;14.80;99.90;;;;;;5068525;28;20460;-53
2022/06/20 02:18:42;;;;;;;3.67;2.20;;;14.70;99.90;;;;;;5069777;28;20464;-53
2022/06/20 02:21:13;;;;;;;7.40;2.60;;;14.70;99.90;;;;;;5065299;28;20834;-52
2022/06/20 02:23:45;;;;;;;7.73;2.80;;;14.60;99.90;;;;;;5067971;28;20964;-53
2022/06/20 02:26:14;;;;;;;5.80;2.60;;;14.60;99.90;;;;;;5066745;28;20893;-53
2022/06/20 02:28:46;;;;;;;4.83;2.47;;;14.70;99.90;;;;;;5065378;28;20460;-51
2022/06/20 02:31:13;;;;;;;6.07;2.87;;;14.60;99.90;;;;;;5069369;28;21262;-54
2022/06/20 02:33:40;;;;;;;5.10;2.77;;;14.60;99.90;;;;;;5070420;28;20594;-54
2022/06/20 02:36:07;;;;;;;4.43;2.30;;;14.60;99.90;;;;;;5067830;28;20462;-56
2022/06/20 02:38:35;;;;;;;6.47;3.30;;;14.50;99.90;;;;;;5066762;28;20938;-52
2022/06/20 02:41:02;;;;;;;5.70;3.10;;;14.50;98.50;;;;;;5064695;28;20571;-52
2022/06/20 02:43:35;;;;;;;7.20;3.50;;;14.50;99.90;;;;;;5068787;28;20477;-54
2022/06/20 02:46:04;;;;;;;10.13;3.57;;;14.40;99.90;;;;;;5066292;28;20460;-54
2022/06/20 02:48:33;;;;;;;4.00;2.97;;;14.50;99.90;;;;;;5068529;28;20464;-53
2022/06/20 02:51:03;;;;;;;5.47;2.83;;;14.50;99.90;;;;;;5069378;28;20542;-54
2022/06/20 02:53:37;;;;;;;10.13;2.83;;;14.50;99.90;;;;;;5062997;28;20586;-52
2022/06/20 02:56:06;;;;;;;8.57;2.30;;;14.50;99.90;;;;;;5065362;28;20507;-53
2022/06/20 02:58:35;;;;;;;5.03;3.03;;;14.50;99.90;;;;;;5069092;28;20510;-52
2022/06/20 03:01:08;;;;;;;4.47;2.60;;;14.60;99.90;;;;;;5067745;28;20989;-52
2022/06/20 03:03:38;;;;;;;5.67;2.60;;;14.60;99.90;;;;;;5070762;28;20485;-52
2022/06/20 03:06:07;;;;;;;5.07;2.80;;;14.60;99.90;;;;;;5065699;28;20514;-53
2022/06/20 03:08:34;;;;;;;4.30;3.47;;;14.50;99.90;;;;;;5069992;28;20503;-52
2022/06/20 03:11:04;;;;;;;4.80;2.60;;;14.50;99.90;;;;;;5073430;28;20488;-52
2022/06/20 03:13:32;;;;;;;5.73;2.83;;;14.50;99.90;;;;;;5071408;28;20469;-52
2022/06/20 03:16:01;;;;;;;4.80;3.40;;;14.50;99.90;;;;;;5067939;28;20453;-52
2022/06/20 03:18:30;;;;;;;8.27;3.20;;;14.50;99.90;;;;;;5068949;28;20460;-54
2022/06/20 03:20:57;;;;;;;11.07;3.10;;;14.50;99.90;;;;;;5070298;28;20481;-52
2022/06/20 03:23:26;;;;;;;4.97;3.00;;;14.50;99.90;;;;;;5070623;28;20484;-52
2022/06/20 03:25:55;;;;;;;5.97;2.83;;;14.50;99.90;;;;;;5070772;28;20946;-52
2022/06/20 03:28:24;;;;;;;7.27;3.50;;;14.60;99.90;;;;;;5066039;28;20461;-51
2022/06/20 03:30:52;;;;;;;8.70;3.17;;;14.60;99.90;;;;;;5065496;28;20530;-54
2022/06/20 03:33:21;;;;;;;7.30;3.97;;;14.60;99.90;;;;;;5070751;28;20465;-52
2022/06/20 03:35:53;;;;;;;5.70;3.67;;;14.60;99.90;;;;;;5066873;28;20478;-53
2022/06/20 03:38:21;;;;;;;6.20;3.57;;;14.60;99.90;;;;;;5065465;28;20453;-54
2022/06/20 03:40:49;;;;;;;6.93;3.53;;;14.60;99.90;;;;;;5068798;28;20530;-53
2022/06/20 03:43:24;;;;;;;5.30;3.33;;;14.60;99.90;;;;;;5070572;28;20444;-52
2022/06/20 03:45:57;;;;;;;6.23;3.37;;;14.60;99.90;;;;;;5059238;28;21012;-53
2022/06/20 03:48:29;;;;;;;5.07;3.83;;;14.70;99.90;;;;;;5068564;28;20469;-51
2022/06/20 03:51:01;;;;;;;9.83;2.90;;;14.60;99.90;;;;;;5066013;28;20486;-53
2022/06/20 03:53:34;;;;;;;5.87;3.63;;;14.70;99.90;;;;;;5058377;28;20460;-53
2022/06/20 03:56:05;;;;;;;8.83;3.57;;;14.70;99.90;;;;;;5064130;28;20464;-53
2022/06/20 03:58:36;;;;;;;10.87;4.90;;;14.70;99.90;;;;;;5066550;28;20464;-53
2022/06/20 04:01:10;;;;;;;6.20;3.57;;;14.70;99.90;;;;;;5066068;28;20484;-53
2022/06/20 04:03:44;;;;;;;8.17;3.60;;;14.60;99.90;;;;;;5061908;28;20481;-52
2022/06/20 04:06:18;;;;;;;6.33;3.33;;;14.70;99.90;;;;;;5066964;28;20955;-53
2022/06/20 04:11:39;;;;;;;6.70;3.77;;;14.70;99.90;;;;;;5061583;28;20456;-52
2022/06/20 04:14:13;;;;;;;9.03;4.27;;;14.70;99.90;;;;;;5061776;28;20947;-53
2022/06/20 04:16:46;;;;;;;6.80;3.67;;;14.70;99.90;;;;;;5061939;28;20510;-53
2022/06/20 04:19:16;;;;;;;8.60;4.07;;;14.70;99.90;;;;;;5062728;28;20514;-52
2022/06/20 04:21:48;;;;;;;6.93;3.30;;;14.70;99.90;;;;;;5065064;28;20448;-54
2022/06/20 04:24:22;;;;;;;13.13;4.60;;;14.70;99.90;;;;;;5062752;28;20240;-53
2022/06/20 04:26:53;;;;;;;6.57;4.00;;;14.70;99.90;;;;;;5069671;28;20465;-52
2022/06/20 04:29:23;;;;;;;5.97;3.90;;;14.80;99.90;;;;;;5064719;28;21034;-53
2022/06/20 04:31:54;;;;;;;6.27;3.77;;;14.80;99.90;;;;;;5062043;28;20510;-53
2022/06/20 04:34:27;;;;;;;6.30;3.87;;;14.80;99.90;;;;;;5065431;28;20510;-52
2022/06/20 04:36:58;;;;;;;6.07;4.33;;;14.80;99.90;;;;;;5055985;28;20457;-53
2022/06/20 04:39:29;;;;;;;4.07;3.47;;;14.80;99.90;;;;;;5062786;28;20465;-52
2022/06/20 04:42:02;;;;;;;7.90;3.90;;;14.80;99.90;;;;;;5062042;28;20461;-52
2022/06/20 04:44:34;;;;;;;10.53;4.77;;;14.80;99.90;;;;;;5065038;28;20488;-54
2022/06/20 04:47:20;;;;;;;4.93;3.47;;;14.90;99.90;;;;;;5069151;28;20566;-53
2022/06/20 04:49:46;;;;;;;13.33;4.40;;;14.90;99.90;;;;;;5056568;28;20477;-52
2022/06/20 04:52:19;;;;;;;6.53;4.00;;;14.90;99.90;;;;;;5062198;28;20959;-52
2022/06/20 04:54:46;;;;;;;7.43;3.90;;;14.90;99.90;;;;;;5065908;28;20485;-51
2022/06/20 04:57:15;;;;;;;8.40;4.67;;;14.90;99.90;;;;;;5067131;28;20499;-52
2022/06/20 04:59:43;;;;;;;11.87;4.20;;;14.90;99.90;;;;;;5061983;28;20526;-52
2022/06/20 05:02:13;;;;;;;7.30;4.20;;;14.90;99.90;;;;;;5058703;28;20488;-52
2022/06/20 05:04:43;;;;;;;9.93;4.20;;;15.00;99.90;;;;;;5057032;28;21064;-52
2022/06/20 05:07:18;;;;;;;8.80;4.60;;;15.00;99.90;;;;;;5065687;28;20453;-53
2022/06/20 05:09:50;;;;;;;10.20;4.50;;;15.00;99.90;;;;;;5059618;28;20831;-51
2022/06/20 05:12:23;;;;;;;10.03;4.33;;;15.00;99.90;;;;;;5057160;28;20512;-52
2022/06/20 05:14:56;;;;;;;8.10;4.37;;;14.90;99.90;;;;;;5059935;28;20524;-53
2022/06/20 05:17:26;;;;;;;9.57;3.77;;;15.00;99.90;;;;;;5067048;28;20457;-52
2022/06/20 05:19:58;;;;;;;6.00;3.87;;;14.90;99.90;;;;;;5060445;28;20510;-53
2022/06/20 05:22:30;;;;;;;7.37;5.00;;;14.90;99.90;;;;;;5061507;28;20461;-54
2022/06/20 05:25:01;;;;;;;12.80;4.43;;;14.90;99.90;;;;;;5065372;28;20480;-52
2022/06/20 05:27:31;;;;;;;7.83;4.10;;;14.90;99.90;;;;;;5066931;28;20542;-53
2022/06/20 05:30:01;;;;;;;7.10;3.80;;;14.90;99.90;;;;;;5061847;28;20472;-52
2022/06/20 05:32:34;;;;;;;13.00;4.80;;;14.80;99.90;;;;;;5061878;28;20442;-53
2022/06/20 05:35:06;;;;;;;14.40;4.77;;;14.80;99.90;;;;;;5058471;28;20453;-52
2022/06/20 05:37:43;;;;;;;7.07;3.90;;;14.70;99.90;;;;;;5058757;28;20538;-52
2022/06/20 05:40:20;;;;;;;14.13;4.43;;;14.60;99.90;;;;;;5062632;28;20477;-52
2022/06/20 05:42:46;;;;;;;5.73;4.30;;;14.60;99.90;;;;;;5062309;28;20991;-53
2022/06/20 05:45:15;;;;;;;8.30;4.80;;;14.50;99.90;;;;;;5060084;28;20484;-53
2022/06/20 05:47:46;;;;;;;8.17;4.43;;;14.40;99.90;;;;;;5064637;28;20461;-52
2022/06/20 05:50:24;;;;;;;9.87;4.60;;;14.30;99.90;;;;;;5059987;28;20485;-51
2022/06/20 05:52:53;;;;;;;8.77;4.90;;;14.30;99.90;;;;;;5064396;28;20464;-52
2022/06/20 05:55:25;;;;;;;5.37;3.70;;;14.30;99.90;;;;;;5061837;28;20521;-52
2022/06/20 05:57:53;;;;;;;9.63;4.17;;;14.30;99.90;;;;;;5057044;28;20457;-52
2022/06/20 06:00:23;;;;;;;6.30;4.07;;;14.20;99.90;;;;;;5060234;28;20526;-52
2022/06/20 06:02:54;;;;;;;12.13;5.10;;;14.20;96.30;;;;;;5063499;28;20461;-52
2022/06/20 06:05:27;;;;;;;7.23;4.13;;;14.20;86.10;;;;;;5064964;28;20503;-52
2022/06/20 06:08:02;;;;;;;8.13;3.97;;;14.20;74.70;;;;;;5062094;28;20874;-53
2022/06/20 06:10:37;;;;;;;6.57;4.20;;;14.20;71.70;;;;;;5061361;28;20541;-52
2022/06/20 06:13:14;;;;;;;11.80;5.13;;;14.10;67.30;;;;;;5055623;28;20534;-53
2022/06/20 06:16:46;;;;;;;10.90;4.33;;;14.10;62.10;;;;;;5066328;28;21012;-54
2022/06/20 06:18:36;;;;;;;8.03;4.23;;;14.00;57.50;;;;;;5058883;28;20458;-52
2022/06/20 06:21:03;;;;;;;4.40;3.70;;;13.90;55.10;;;;;;5065567;28;20598;-52
2022/06/20 06:23:31;;;;;;;20.13;3.63;;;13.80;54.90;;;;;;5060718;28;20461;-53
2022/06/20 06:25:58;;;;;;;6.50;3.73;;;13.80;48.20;;;;;;5058613;28;20484;-53
2022/06/20 06:28:27;;;;;;;7.33;3.83;;;13.80;36.70;;;;;;5067268;28;20452;-52
2022/06/20 06:30:59;;;;;;;4.20;3.37;;;13.90;29.50;;;;;;5066078;28;20576;-53
2022/06/20 06:33:30;;;;;;;3.33;3.03;;;13.90;22.50;;;;;;5065346;28;20522;-53
2022/06/20 06:36:02;;;;;;;5.20;2.90;;;13.80;95.20;;;;;;5064611;28;20503;-54
2022/06/20 06:38:37;;;;;;;5.20;3.23;;;13.90;99.90;;;;;;5058598;28;20457;-52
2022/06/20 06:41:13;;;;;;;6.43;3.07;;;13.90;99.90;;;;;;5058033;28;20531;-53
2022/06/20 06:43:44;;;;;;;4.00;2.80;;;13.90;99.90;;;;;;5061645;28;20482;-52
2022/06/20 06:46:16;;;;;;;5.93;3.13;;;13.90;99.90;;;;;;5068700;28;20480;-53
2022/06/20 06:48:47;;;;;;;3.93;3.10;;;14.00;99.90;;;;;;5066904;28;20457;-53
2022/06/20 06:51:19;;;;;;;5.72;3.38;;;14.00;99.90;;;;;;5062604;28;20467;-51
2022/06/20 06:53:51;;;;;;;7.67;4.17;;;14.10;99.90;;;;;;5061874;28;20199;-52
2022/06/20 06:56:22;;;;;;;5.20;3.43;;;14.10;99.90;;;;;;5063610;28;20465;-53
2022/06/20 06:58:53;;;;;;;5.73;3.97;;;14.20;99.90;;;;;;5070599;28;20510;-51
2022/06/20 07:01:24;;;;;;;4.40;3.40;;;14.20;99.90;;;;;;5065435;28;20476;-54
2022/06/20 07:03:56;;;;;;;3.40;3.10;;;14.20;99.90;;;;;;5072277;28;20522;-52
2022/06/20 07:06:29;;;;;;;4.40;3.37;;;14.20;99.90;;;;;;5066532;28;20994;-53
2022/06/20 07:09:06;;;;;;;6.53;3.43;;;14.20;99.90;;;;;;5060072;28;20461;-53
2022/06/20 07:11:34;;;;;;;7.17;4.33;;;14.20;99.90;;;;;;5067835;28;20502;-52
2022/06/20 07:14:05;;;;;;;11.63;3.90;;;14.20;99.90;;;;;;5066770;28;20457;-52
2022/06/20 07:16:37;;;;;;;10.80;4.20;;;14.20;99.90;;;;;;5069074;28;20511;-52
2022/06/20 07:19:07;;;;;;;5.90;4.33;;;14.20;99.90;;;;;;5069990;28;20453;-52
2022/06/20 07:21:34;;;;;;;18.90;3.50;;;14.30;99.90;;;;;;5070068;28;20487;-52
2022/06/20 07:24:05;;;;;;;5.93;3.70;;;14.30;99.90;;;;;;5062158;28;21016;-53
2022/06/20 07:26:42;;;;;;;4.10;2.97;;;14.40;99.90;;;;;;5065493;28;20476;-53
2022/06/20 07:29:14;;;;;;;3.70;3.37;;;14.40;99.90;;;;;;5070114;28;20460;-53
2022/06/20 07:31:44;;;;;;;3.80;3.50;;;14.40;99.90;;;;;;5063114;28;20888;-51
2022/06/20 07:34:16;;;;;;;4.10;3.17;;;14.40;99.90;;;;;;5065006;28;20457;-53
2022/06/20 07:36:47;;;;;;;4.53;3.23;;;14.50;99.90;;;;;;5063590;28;20453;-53
2022/06/20 07:39:21;;;;;;;3.80;3.47;;;14.50;99.90;;;;;;5064439;28;20473;-52
2022/06/20 07:41:52;;;;;;;4.20;3.80;;;14.40;99.90;;;;;;5063090;28;20494;-52
2022/06/20 07:44:24;;;;;;;7.20;3.20;;;14.50;99.90;;;;;;5061663;28;20515;-52
2022/06/20 07:46:56;;;;;;;4.67;3.60;;;14.50;99.90;;;;;;5060572;28;20514;-52
2022/06/20 07:49:29;;;;;;;5.50;3.30;;;14.50;99.90;;;;;;5062001;28;20514;-51
2022/06/20 07:51:59;;;;;;;4.33;3.60;;;14.50;99.90;;;;;;5058590;28;20485;-53
2022/06/20 07:54:34;;;;;;;4.80;3.50;;;14.50;99.90;;;;;;5063928;28;20465;-53
2022/06/20 07:57:09;;;;;;;4.57;2.83;;;14.40;99.90;;;;;;5060628;28;20465;-52
2022/06/20 07:59:43;;;;;;;8.13;2.97;;;14.50;99.90;;;;;;5060294;28;20530;-53
2022/06/20 08:02:15;;;;;;;3.90;3.47;;;14.50;99.90;;;;;;5059094;28;20465;-52
2022/06/20 08:04:46;;;;;;;5.17;3.43;;;14.50;99.90;;;;;;5066098;28;20461;-54
2022/06/20 08:07:20;;;;;;;5.30;3.30;;;14.40;99.90;;;;;;5065346;28;20469;-52
2022/06/20 08:09:55;;;;;;;3.93;3.47;;;14.50;99.90;;;;;;5060718;28;20551;-52
2022/06/20 08:12:25;;;;;;;9.50;3.60;;;14.50;99.90;;;;;;5061272;28;20518;-55
2022/06/20 08:14:57;;;;;;;3.73;3.30;;;14.40;99.90;;;;;;5059227;28;21227;-52
2022/06/20 08:17:24;;;;;;;3.60;2.80;;;14.50;99.90;;;;;;5060853;28;20461;-52
2022/06/20 08:19:52;;;;;;;5.60;2.90;;;14.50;99.90;;;;;;5061983;28;20503;-52
2022/06/20 08:22:24;;;;;;;4.40;3.10;;;14.50;99.90;;;;;;5059324;28;20463;-52
2022/06/20 08:24:56;;;;;;;6.20;2.97;;;14.50;99.90;;;;;;5061853;28;20477;-53
2022/06/20 08:27:34;;;;;;;5.30;3.10;;;14.60;99.90;;;;;;5058291;28;20506;-52
2022/06/20 08:30:09;;;;;;;3.30;3.00;;;14.60;99.90;;;;;;5061393;28;20481;-52
2022/06/20 08:32:41;;;;;;;4.10;3.20;;;14.50;99.90;;;;;;5066878;28;20467;-53
2022/06/20 08:35:16;;;;;;;9.50;3.50;;;14.60;99.90;;;;;;5064584;28;21012;-52
2022/06/20 08:37:47;;;;;;;6.47;3.60;;;14.60;99.90;;;;;;5059220;28;21040;-52
2022/06/20 08:40:36;;;;;;;4.43;3.43;;;14.60;99.90;;;;;;5059629;28;20618;-52
2022/06/20 08:43:33;;;;;;;3.60;3.20;;;14.70;99.90;;;;;;5060972;28;20635;-52
2022/06/20 08:46:18;;;;;;;3.13;2.93;;;14.80;99.90;;;;;;5055672;28;20464;-53
2022/06/20 08:49:23;;;;;;;4.30;3.30;;;14.80;99.90;;;;;;5058400;28;22424;-52
2022/06/20 08:52:19;;;;;;;3.70;3.03;;;14.60;99.90;;;;;;5061736;28;20490;-53
2022/06/20 08:55:25;;;;;;;3.83;3.30;;;14.50;99.90;;;;;;5059779;28;20497;-52
2022/06/20 08:58:02;;;;;;;3.87;3.37;;;14.60;99.90;;;;;;5059281;28;21184;-52
2022/06/20 09:00:36;;;;;;;3.77;3.23;;;14.60;99.90;;;;;;5062362;28;21023;-52
2022/06/20 09:03:23;;;;;;;4.70;3.30;;;14.60;99.90;;;;;;5061378;28;21047;-52
2022/06/20 09:06:04;;;;;;;3.47;3.17;;;14.60;99.90;;;;;;5058447;28;20562;-51
2022/06/20 09:08:45;;;;;;;4.97;3.70;;;14.60;99.90;;;;;;5053018;28;20488;-53
2022/06/20 09:11:23;;;;;;;4.20;3.07;;;14.60;99.90;;;;;;5066472;28;21289;-51
2022/06/20 09:14:07;;;;;;;6.67;3.97;;;14.60;99.90;;;;;;5061309;28;20487;-52
2022/06/20 09:16:47;;;;;;;18.53;5.03;;;14.60;95.20;;;;;;5059003;28;20946;-52
2022/06/20 09:19:34;;;;;;;6.63;3.20;;;14.60;22.90;;;;;;5060908;28;20473;-52
2022/06/20 09:22:11;;;;;;;3.80;3.50;;;14.70;74.60;;;;;;5059058;28;20459;-53
2022/06/20 09:24:51;;;;;;;3.20;2.93;;;14.70;21.50;;;;;;5067897;28;20452;-52
2022/06/20 09:27:28;;;;;;;5.47;3.77;;;14.70;20.30;;;;;;5061674;28;22500;-51
2022/06/20 09:30:06;;;;;;;4.30;3.30;;;14.80;21.10;;;;;;5060296;28;20485;-53
2022/06/20 09:33:15;;;;;;;5.00;2.77;;;14.80;99.90;;;;;;5056629;28;20469;-52
2022/06/20 09:36:04;;;;;;;5.73;3.50;;;14.70;83.30;;;;;;5049413;28;20518;-52
2022/06/20 09:38:48;;;;;;;6.57;3.40;;;14.80;99.90;;;;;;5064394;28;20954;-53
2022/06/20 09:41:22;;;;;;;5.90;3.53;;;14.70;28.00;;;;;;5058550;28;20538;-52
2022/06/20 09:44:04;;;;;;;7.37;3.10;;;14.80;22.80;;;;;;5060084;28;20461;-52
2022/06/20 09:46:47;;;;;;;5.07;3.50;;;14.70;35.70;;;;;;5066706;28;20485;-53
2022/06/20 09:49:20;;;;;;;5.47;2.80;;;14.80;23.60;;;;;;5061667;28;20490;-53
2022/06/20 09:51:56;;;;;;;4.07;3.53;;;14.60;42.30;;;;;;5058293;28;20461;-52
2022/06/20 09:54:32;;;;;;;5.40;3.40;;;14.60;56.10;;;;;;5059861;28;20461;-53
2022/06/20 09:57:10;;;;;;;11.47;3.47;;;14.60;41.30;;;;;;5060197;28;20801;-53
2022/06/20 09:59:44;;;;;;;4.40;3.07;;;14.60;34.90;;;;;;5065320;28;20480;-53
2022/06/20 10:02:17;;;;;;;3.27;2.90;;;14.60;33.90;;;;;;5061657;28;20453;-53
2022/06/20 10:04:51;;;;;;;5.37;4.03;;;14.50;32.40;;;;;;5063587;28;20533;-52
2022/06/20 10:07:28;;;;;;;5.13;3.13;;;14.60;73.50;;;;;;5066542;28;20993;-53
2022/06/20 10:10:04;;;;;;;3.23;2.93;;;14.60;99.90;;;;;;5062181;28;20484;-52
2022/06/20 10:12:40;;;;;;;3.13;2.90;;;14.60;99.90;;;;;;5054768;28;20552;-53
2022/06/20 10:15:12;;;;;;;5.37;3.00;;;14.50;99.90;;;;;;5056096;28;20487;-53
2022/06/20 10:17:50;;;;;;;7.00;3.80;;;14.60;99.90;;;;;;5063928;28;20457;-52
2022/06/20 10:20:29;;;;;;;3.63;3.23;;;14.60;99.90;;;;;;5063955;28;20511;-52
2022/06/20 10:23:02;;;;;;;6.03;3.83;;;14.50;99.90;;;;;;5068617;28;20514;-52
2022/06/20 10:25:58;;;;;;;3.80;3.30;;;14.50;99.90;;;;;;5059597;28;20556;-51
2022/06/20 10:28:36;;;;;;;4.63;3.63;;;14.50;99.90;;;;;;5049585;28;20515;-52
2022/06/20 10:31:09;;;;;;;5.00;4.00;;;14.50;99.90;;;;;;5067481;28;20868;-52
2022/06/20 10:33:46;;;;;;;4.37;3.40;;;14.50;99.90;;;;;;5067287;28;20433;-52
2022/06/20 10:36:18;;;;;;;6.90;3.83;;;14.50;99.90;;;;;;5066260;28;20820;-52
2022/06/20 10:39:03;;;;;;;5.50;3.77;;;14.50;99.90;;;;;;5062162;28;20457;-52
2022/06/20 10:41:37;;;;;;;3.87;3.53;;;14.50;99.90;;;;;;5065881;28;21007;-52
2022/06/20 10:44:17;;;;;;;4.60;3.40;;;14.60;99.90;;;;;;5065781;28;20454;-53
2022/06/20 10:46:48;;;;;;;7.50;3.80;;;14.60;99.90;;;;;;5066554;28;20476;-52
2022/06/20 10:49:49;;;;;;;3.80;2.60;;;14.60;99.90;;;;;;5060982;28;20535;-53
2022/06/20 10:52:32;;;;;;;3.57;2.87;;;14.50;99.90;;;;;;5042743;28;21020;-51
2022/06/20 10:55:16;;;;;;;3.60;3.30;;;14.40;99.90;;;;;;5061039;28;20946;-53
2022/06/20 10:57:54;;;;;;;4.27;3.30;;;14.50;99.90;;;;;;5064643;28;20877;-52
2022/06/20 11:00:25;;;;;;;3.20;3.00;;;14.50;99.90;;;;;;5065275;28;20484;-52
2022/06/20 11:03:04;;;;;;;3.10;2.80;;;14.40;99.90;;;;;;5063402;28;20464;-53
2022/06/20 11:05:39;;;;;;;3.67;3.30;;;14.40;99.90;;;;;;5067609;28;20880;-52
2022/06/20 11:08:17;;;;;;;6.50;3.03;;;14.50;99.90;;;;;;5065784;28;20541;-54
2022/06/20 11:10:56;;;;;;;3.30;3.00;;;14.50;99.90;;;;;;5066850;28;20476;-52
2022/06/20 11:13:29;;;;;;;3.83;2.80;;;14.50;99.90;;;;;;5064150;28;20495;-53
2022/06/20 11:16:05;;;;;;;4.00;3.30;;;14.50;99.90;;;;;;5054341;28;20841;-52
2022/06/20 11:18:44;;;;;;;3.60;3.30;;;14.60;99.90;;;;;;5062103;28;20486;-52
2022/06/20 11:21:20;;;;;;;3.90;3.60;;;14.50;99.90;;;;;;5055543;28;20566;-53
2022/06/20 11:23:55;;;;;;;4.00;3.10;;;14.60;99.90;;;;;;5061915;28;20519;-52
2022/06/20 11:26:33;;;;;;;4.60;3.30;;;14.60;99.90;;;;;;5065069;28;20473;-52
2022/06/20 11:29:19;;;;;;;3.33;3.00;;;14.70;99.90;;;;;;5064257;28;20473;-52
2022/06/20 11:31:56;;;;;;;5.30;3.23;;;14.60;99.90;;;;;;5062932;28;20503;-52
2022/06/20 11:34:50;;;;;;;2.90;2.70;;;14.70;99.90;;;;;;5064641;28;20465;-52
2022/06/20 11:37:29;;;;;;;4.40;4.00;;;14.70;99.90;;;;;;5064411;28;20446;-52
2022/06/20 11:40:09;;;;;;;3.50;3.17;;;14.70;99.90;;;;;;5062578;28;20473;-54
2022/06/20 11:43:07;;;;;;;3.53;3.23;;;14.70;99.90;;;;;;5060130;28;20950;-53
2022/06/20 11:45:49;;;;;;;2.70;2.50;;;14.80;99.90;;;;;;5061273;28;20936;-51
2022/06/20 11:48:29;;;;;;;15.03;2.40;;;14.80;99.90;;;;;;5057648;28;20425;-53
2022/06/20 11:51:03;;;;;;;4.13;2.83;;;14.80;99.90;;;;;;5066200;28;20503;-53
2022/06/20 11:53:47;;;;;;;2.90;2.53;;;14.80;99.90;;;;;;5060532;28;20536;-51
2022/06/20 11:56:21;;;;;;;2.93;2.57;;;14.70;99.90;;;;;;5062302;28;20947;-52
2022/06/20 11:59:02;;;;;;;5.50;3.50;;;14.70;99.90;;;;;;5064056;28;20441;-52
2022/06/20 12:01:37;;;;;;;3.43;3.17;;;14.70;99.90;;;;;;5072980;28;20496;-54
2022/06/20 12:04:13;;;;;;;3.03;2.77;;;14.80;99.90;;;;;;5073128;28;20448;-53
2022/06/20 12:06:45;;;;;;;3.83;2.57;;;14.80;99.90;;;;;;5063956;28;20978;-53
2022/06/20 12:09:22;;;;;;;2.90;2.70;;;14.70;99.90;;;;;;5062650;28;20518;-52
2022/06/20 12:12:02;;;;;;;4.57;2.00;;;14.70;99.90;;;;;;5060912;28;20453;-51
2022/06/20 12:17:17;;;;;;;2.27;2.07;;;14.70;94.90;;;;;;5082037;28;20822;-51
2022/06/20 12:25:33;;;;;;;1.97;1.87;;;14.70;93.40;;;;;;5076937;28;20530;-52
2022/06/20 12:28:00;;;;;;;2.40;2.20;;;14.70;99.90;;;;;;5082618;28;20532;-51
2022/06/20 12:30:27;;;;;;;2.53;2.33;;;14.70;88.80;;;;;;5086891;28;20456;-51
2022/06/20 12:32:56;;;;;;;4.20;2.10;;;14.80;99.90;;;;;;5082977;28;20452;-51
2022/06/20 12:35:29;;;;;;;3.13;1.97;;;14.70;22.90;;;;;;5086909;28;20487;-52
2022/06/20 12:38:00;;;;;;;2.20;1.67;;;14.80;83.30;;;;;;5088469;28;20510;-51
2022/06/20 12:40:34;;;;;;;4.20;2.27;;;14.70;26.10;;;;;;5086441;28;20468;-52
2022/06/20 12:43:07;;;;;;;1.70;1.60;;;14.70;41.00;;;;;;5089473;28;20488;-52
2022/06/20 12:46:02;;;;;;;3.23;1.60;;;14.80;46.00;;;;;;5087049;28;20553;-52
2022/06/20 12:48:40;;;;;;;7.40;1.90;;;14.70;59.30;;;;;;5088734;28;20998;-51
2022/06/20 12:51:16;;;;;;;2.53;1.80;;;14.80;56.70;;;;;;5081014;28;21031;-51
2022/06/20 12:54:00;;;;;;;2.20;1.50;;;14.80;60.90;;;;;;5082137;28;20463;-51
2022/06/20 12:56:40;;;;;;;3.73;1.87;;;14.80;57.50;;;;;;5081726;28;20480;-52
2022/06/20 12:59:38;;;;;;;2.10;1.93;;;14.90;48.90;;;;;;5083373;28;20452;-50
2022/06/20 13:02:13;;;;;;;2.67;1.87;;;14.90;47.20;;;;;;5082115;28;20867;-52
2022/06/20 13:05:01;;;;;;;4.40;1.43;;;14.90;42.10;;;;;;5083108;28;20537;-51
2022/06/20 13:07:47;;;;;;;1.50;1.40;;;14.90;50.20;;;;;;5081277;28;20476;-51
2022/06/20 13:10:27;;;;;;;7.60;1.50;;;14.80;62.60;;;;;;5082840;28;20513;-50
2022/06/20 13:13:13;;;;;;;1.60;1.40;;;14.80;79.10;;;;;;5084193;28;20892;-51
2022/06/20 13:15:46;;;;;;;1.83;1.73;;;14.70;99.90;;;;;;5090293;28;20487;-51
2022/06/20 13:18:40;;;;;;;1.67;1.57;;;14.70;99.90;;;;;;5083318;28;20444;-51
2022/06/20 13:21:16;;;;;;;1.87;1.27;;;14.70;99.90;;;;;;5077461;28;20456;-51
2022/06/20 13:23:53;;;;;;;1.33;1.23;;;14.70;99.90;;;;;;5084511;28;20455;-50
2022/06/20 13:26:30;;;;;;;3.13;1.40;;;14.70;99.90;;;;;;5084278;28;20495;-50
2022/06/20 13:29:11;;;;;;;1.70;1.60;;;14.80;99.90;;;;;;5074322;28;20476;-52
2022/06/20 13:31:43;;;;;;;6.77;1.97;;;14.90;99.90;;;;;;5081550;28;20907;-51
2022/06/20 13:34:15;;;;;;;1.40;1.30;;;15.00;99.90;;;;;;5075635;28;20457;-51
2022/06/20 13:36:51;;;;;;;1.93;1.83;;;15.10;93.30;;;;;;5087584;28;20480;-50